sensor_id;sensor_type;location;lat;lon;timestamp;P1;durP1;ratioP1;P2;durP2;ratioP2
51660;SDS011;37741;49.748;8.490;2023-11-19T00:02:21;3.30;;;2.28;;
51660;SDS011;37741;49.748;8.490;2023-11-19T00:04:47;3.88;;;2.25;;
51660;SDS011;37741;49.748;8.490;2023-11-19T00:07:12;4.47;;;2.67;;
51660;SDS011;37741;49.748;8.490;2023-11-19T00:09:39;3.90;;;2.70;;
51660;SDS011;37741;49.748;8.490;2023-11-19T00:12:05;4.35;;;2.72;;
51660;SDS011;37741;49.748;8.490;2023-11-19T00:14:32;4.65;;;3.10;;
51660;SDS011;37741;49.748;8.490;2023-11-19T00:16:58;3.70;;;2.70;;
51660;SDS011;37741;49.748;8.490;2023-11-19T00:19:24;4.03;;;2.45;;
51660;SDS011;37741;49.748;8.490;2023-11-19T00:21:51;4.03;;;2.30;;
51660;SDS011;37741;49.748;8.490;2023-11-19T00:24:17;3.40;;;2.33;;
51660;SDS011;37741;49.748;8.490;2023-11-19T00:26:43;4.82;;;2.92;;
51660;SDS011;37741;49.748;8.490;2023-11-19T00:29:09;3.97;;;2.67;;
51660;SDS011;37741;49.748;8.490;2023-11-19T00:31:35;5.35;;;2.90;;
51660;SDS011;37741;49.748;8.490;2023-11-19T00:34:01;4.13;;;2.45;;
51660;SDS011;37741;49.748;8.490;2023-11-19T00:36:27;3.65;;;2.50;;
51660;SDS011;37741;49.748;8.490;2023-11-19T00:38:53;3.85;;;2.38;;
51660;SDS011;37741;49.748;8.490;2023-11-19T00:41:19;3.28;;;1.92;;
51660;SDS011;37741;49.748;8.490;2023-11-19T00:43:45;3.70;;;2.50;;
51660;SDS011;37741;49.748;8.490;2023-11-19T00:46:11;4.88;;;2.65;;
51660;SDS011;37741;49.748;8.490;2023-11-19T00:48:37;4.10;;;2.70;;
51660;SDS011;37741;49.748;8.490;2023-11-19T00:51:03;3.92;;;2.75;;
51660;SDS011;37741;49.748;8.490;2023-11-19T00:53:29;5.10;;;2.70;;
51660;SDS011;37741;49.748;8.490;2023-11-19T00:55:55;4.22;;;2.45;;
51660;SDS011;37741;49.748;8.490;2023-11-19T00:58:21;3.97;;;2.83;;
51660;SDS011;37741;49.748;8.490;2023-11-19T01:00:46;4.03;;;2.50;;
51660;SDS011;37741;49.748;8.490;2023-11-19T01:03:12;4.95;;;2.70;;
51660;SDS011;37741;49.748;8.490;2023-11-19T01:05:39;4.22;;;2.60;;
51660;SDS011;37741;49.748;8.490;2023-11-19T01:08:05;3.85;;;3.00;;
51660;SDS011;37741;49.748;8.490;2023-11-19T01:10:31;4.60;;;2.90;;
51660;SDS011;37741;49.748;8.490;2023-11-19T01:12:57;3.97;;;2.63;;
51660;SDS011;37741;49.748;8.490;2023-11-19T01:15:23;4.07;;;2.67;;
51660;SDS011;37741;49.748;8.490;2023-11-19T01:17:49;3.63;;;2.53;;
51660;SDS011;37741;49.748;8.490;2023-11-19T01:20:14;4.13;;;2.85;;
51660;SDS011;37741;49.748;8.490;2023-11-19T01:22:40;4.30;;;2.60;;
51660;SDS011;37741;49.748;8.490;2023-11-19T01:25:06;4.53;;;2.70;;
51660;SDS011;37741;49.748;8.490;2023-11-19T01:27:32;3.63;;;2.80;;
51660;SDS011;37741;49.748;8.490;2023-11-19T01:30:01;3.85;;;2.95;;
51660;SDS011;37741;49.748;8.490;2023-11-19T01:32:31;3.90;;;2.67;;
51660;SDS011;37741;49.748;8.490;2023-11-19T01:34:57;4.15;;;2.50;;
51660;SDS011;37741;49.748;8.490;2023-11-19T01:37:23;4.10;;;2.75;;
51660;SDS011;37741;49.748;8.490;2023-11-19T01:39:48;5.18;;;3.13;;
51660;SDS011;37741;49.748;8.490;2023-11-19T01:42:14;4.28;;;2.67;;
51660;SDS011;37741;49.748;8.490;2023-11-19T01:44:40;3.58;;;2.67;;
51660;SDS011;37741;49.748;8.490;2023-11-19T01:47:06;2.92;;;2.30;;
51660;SDS011;37741;49.748;8.490;2023-11-19T01:49:33;3.70;;;2.35;;
51660;SDS011;37741;49.748;8.490;2023-11-19T01:51:59;4.22;;;2.40;;
51660;SDS011;37741;49.748;8.490;2023-11-19T01:54:25;4.22;;;2.38;;
51660;SDS011;37741;49.748;8.490;2023-11-19T01:56:53;3.60;;;2.38;;
51660;SDS011;37741;49.748;8.490;2023-11-19T01:59:21;3.50;;;2.28;;
51660;SDS011;37741;49.748;8.490;2023-11-19T02:01:51;3.78;;;2.50;;
51660;SDS011;37741;49.748;8.490;2023-11-19T02:04:19;3.45;;;1.73;;
51660;SDS011;37741;49.748;8.490;2023-11-19T02:06:45;3.55;;;2.38;;
51660;SDS011;37741;49.748;8.490;2023-11-19T02:09:17;3.10;;;1.92;;
51660;SDS011;37741;49.748;8.490;2023-11-19T02:11:44;2.75;;;1.85;;
51660;SDS011;37741;49.748;8.490;2023-11-19T02:14:13;3.65;;;2.00;;
51660;SDS011;37741;49.748;8.490;2023-11-19T02:16:39;2.85;;;1.90;;
51660;SDS011;37741;49.748;8.490;2023-11-19T02:19:04;3.47;;;2.17;;
51660;SDS011;37741;49.748;8.490;2023-11-19T02:21:31;5.05;;;1.95;;
51660;SDS011;37741;49.748;8.490;2023-11-19T02:23:57;3.20;;;1.85;;
51660;SDS011;37741;49.748;8.490;2023-11-19T02:26:29;3.03;;;1.83;;
51660;SDS011;37741;49.748;8.490;2023-11-19T02:29:04;2.58;;;1.73;;
51660;SDS011;37741;49.748;8.490;2023-11-19T02:31:31;4.05;;;1.90;;
51660;SDS011;37741;49.748;8.490;2023-11-19T02:33:57;3.03;;;1.58;;
51660;SDS011;37741;49.748;8.490;2023-11-19T02:36:25;2.80;;;1.88;;
51660;SDS011;37741;49.748;8.490;2023-11-19T02:38:50;2.28;;;1.40;;
51660;SDS011;37741;49.748;8.490;2023-11-19T02:41:16;2.30;;;1.35;;
51660;SDS011;37741;49.748;8.490;2023-11-19T02:43:42;4.32;;;1.60;;
51660;SDS011;37741;49.748;8.490;2023-11-19T02:46:07;2.65;;;1.48;;
51660;SDS011;37741;49.748;8.490;2023-11-19T02:48:33;2.63;;;1.52;;
51660;SDS011;37741;49.748;8.490;2023-11-19T02:51:02;2.83;;;1.63;;
51660;SDS011;37741;49.748;8.490;2023-11-19T02:53:34;2.00;;;1.10;;
51660;SDS011;37741;49.748;8.490;2023-11-19T02:56:00;1.80;;;1.10;;
51660;SDS011;37741;49.748;8.490;2023-11-19T02:58:27;2.40;;;1.17;;
51660;SDS011;37741;49.748;8.490;2023-11-19T03:00:53;2.03;;;1.20;;
51660;SDS011;37741;49.748;8.490;2023-11-19T03:03:25;2.40;;;1.20;;
51660;SDS011;37741;49.748;8.490;2023-11-19T03:06:04;2.47;;;1.30;;
51660;SDS011;37741;49.748;8.490;2023-11-19T03:08:30;2.80;;;1.30;;
51660;SDS011;37741;49.748;8.490;2023-11-19T03:10:55;2.38;;;1.38;;
51660;SDS011;37741;49.748;8.490;2023-11-19T03:13:21;2.15;;;1.20;;
51660;SDS011;37741;49.748;8.490;2023-11-19T03:15:47;2.17;;;1.20;;
51660;SDS011;37741;49.748;8.490;2023-11-19T03:18:12;3.47;;;1.63;;
51660;SDS011;37741;49.748;8.490;2023-11-19T03:20:38;2.50;;;1.10;;
51660;SDS011;37741;49.748;8.490;2023-11-19T03:23:04;2.53;;;1.10;;
51660;SDS011;37741;49.748;8.490;2023-11-19T03:25:31;2.05;;;1.00;;
51660;SDS011;37741;49.748;8.490;2023-11-19T03:28:02;2.28;;;1.17;;
51660;SDS011;37741;49.748;8.490;2023-11-19T03:30:28;1.75;;;0.88;;
51660;SDS011;37741;49.748;8.490;2023-11-19T03:32:56;1.67;;;0.82;;
51660;SDS011;37741;49.748;8.490;2023-11-19T03:35:24;2.35;;;1.00;;
51660;SDS011;37741;49.748;8.490;2023-11-19T03:37:50;1.80;;;0.85;;
51660;SDS011;37741;49.748;8.490;2023-11-19T03:40:16;1.95;;;1.00;;
51660;SDS011;37741;49.748;8.490;2023-11-19T03:42:43;2.00;;;0.90;;
51660;SDS011;37741;49.748;8.490;2023-11-19T03:45:10;2.40;;;0.82;;
51660;SDS011;37741;49.748;8.490;2023-11-19T03:47:35;2.03;;;1.00;;
51660;SDS011;37741;49.748;8.490;2023-11-19T03:50:01;1.52;;;0.70;;
51660;SDS011;37741;49.748;8.490;2023-11-19T03:52:29;2.00;;;0.70;;
51660;SDS011;37741;49.748;8.490;2023-11-19T03:54:55;1.85;;;0.85;;
51660;SDS011;37741;49.748;8.490;2023-11-19T03:57:22;3.63;;;0.82;;
51660;SDS011;37741;49.748;8.490;2023-11-19T03:59:48;1.70;;;0.80;;
51660;SDS011;37741;49.748;8.490;2023-11-19T04:02:14;2.67;;;1.15;;
51660;SDS011;37741;49.748;8.490;2023-11-19T04:04:40;1.35;;;0.70;;
51660;SDS011;37741;49.748;8.490;2023-11-19T04:07:06;5.55;;;0.90;;
51660;SDS011;37741;49.748;8.490;2023-11-19T04:09:32;2.35;;;0.82;;
51660;SDS011;37741;49.748;8.490;2023-11-19T04:11:59;1.95;;;0.98;;
51660;SDS011;37741;49.748;8.490;2023-11-19T04:14:25;2.40;;;0.73;;
51660;SDS011;37741;49.748;8.490;2023-11-19T04:16:52;2.72;;;1.00;;
51660;SDS011;37741;49.748;8.490;2023-11-19T04:19:18;2.15;;;0.80;;
51660;SDS011;37741;49.748;8.490;2023-11-19T04:21:44;1.77;;;0.75;;
51660;SDS011;37741;49.748;8.490;2023-11-19T04:24:10;1.98;;;0.77;;
51660;SDS011;37741;49.748;8.490;2023-11-19T04:26:41;2.90;;;1.20;;
51660;SDS011;37741;49.748;8.490;2023-11-19T04:29:11;2.90;;;0.90;;
51660;SDS011;37741;49.748;8.490;2023-11-19T04:31:38;2.13;;;0.80;;
51660;SDS011;37741;49.748;8.490;2023-11-19T04:34:04;2.15;;;1.02;;
51660;SDS011;37741;49.748;8.490;2023-11-19T04:36:31;2.17;;;0.82;;
51660;SDS011;37741;49.748;8.490;2023-11-19T04:38:58;2.20;;;1.20;;
51660;SDS011;37741;49.748;8.490;2023-11-19T04:41:24;1.92;;;0.70;;
51660;SDS011;37741;49.748;8.490;2023-11-19T04:43:50;2.80;;;1.42;;
51660;SDS011;37741;49.748;8.490;2023-11-19T04:46:16;2.25;;;0.85;;
51660;SDS011;37741;49.748;8.490;2023-11-19T04:48:41;2.28;;;0.95;;
51660;SDS011;37741;49.748;8.490;2023-11-19T04:51:07;1.73;;;0.80;;
51660;SDS011;37741;49.748;8.490;2023-11-19T04:53:34;1.40;;;0.70;;
51660;SDS011;37741;49.748;8.490;2023-11-19T04:56:00;3.33;;;0.80;;
51660;SDS011;37741;49.748;8.490;2023-11-19T04:58:25;2.17;;;0.80;;
51660;SDS011;37741;49.748;8.490;2023-11-19T05:00:54;2.03;;;0.68;;
51660;SDS011;37741;49.748;8.490;2023-11-19T05:03:19;1.50;;;0.63;;
51660;SDS011;37741;49.748;8.490;2023-11-19T05:05:45;1.50;;;0.70;;
51660;SDS011;37741;49.748;8.490;2023-11-19T05:08:11;1.92;;;0.90;;
51660;SDS011;37741;49.748;8.490;2023-11-19T05:10:36;3.10;;;1.05;;
51660;SDS011;37741;49.748;8.490;2023-11-19T05:13:02;1.30;;;0.60;;
51660;SDS011;37741;49.748;8.490;2023-11-19T05:15:27;2.00;;;0.82;;
51660;SDS011;37741;49.748;8.490;2023-11-19T05:17:53;2.00;;;1.05;;
51660;SDS011;37741;49.748;8.490;2023-11-19T05:20:19;2.35;;;0.90;;
51660;SDS011;37741;49.748;8.490;2023-11-19T05:22:44;2.53;;;0.90;;
51660;SDS011;37741;49.748;8.490;2023-11-19T05:25:11;2.22;;;0.82;;
51660;SDS011;37741;49.748;8.490;2023-11-19T05:27:37;2.78;;;0.88;;
51660;SDS011;37741;49.748;8.490;2023-11-19T05:30:06;1.60;;;0.70;;
51660;SDS011;37741;49.748;8.490;2023-11-19T05:32:37;1.70;;;1.07;;
51660;SDS011;37741;49.748;8.490;2023-11-19T05:35:03;2.30;;;0.90;;
51660;SDS011;37741;49.748;8.490;2023-11-19T05:37:29;2.00;;;0.80;;
51660;SDS011;37741;49.748;8.490;2023-11-19T05:39:55;2.05;;;0.70;;
51660;SDS011;37741;49.748;8.490;2023-11-19T05:42:20;2.55;;;0.90;;
51660;SDS011;37741;49.748;8.490;2023-11-19T05:44:46;2.30;;;0.90;;
51660;SDS011;37741;49.748;8.490;2023-11-19T05:47:12;1.60;;;0.95;;
51660;SDS011;37741;49.748;8.490;2023-11-19T05:49:37;1.35;;;0.68;;
51660;SDS011;37741;49.748;8.490;2023-11-19T05:52:03;2.03;;;0.95;;
51660;SDS011;37741;49.748;8.490;2023-11-19T05:54:32;1.55;;;0.82;;
51660;SDS011;37741;49.748;8.490;2023-11-19T05:57:02;2.08;;;0.80;;
51660;SDS011;37741;49.748;8.490;2023-11-19T05:59:29;1.52;;;0.70;;
51660;SDS011;37741;49.748;8.490;2023-11-19T06:01:55;3.08;;;1.00;;
51660;SDS011;37741;49.748;8.490;2023-11-19T06:04:22;4.45;;;1.00;;
51660;SDS011;37741;49.748;8.490;2023-11-19T06:06:48;2.47;;;0.93;;
51660;SDS011;37741;49.748;8.490;2023-11-19T06:09:13;2.10;;;0.65;;
51660;SDS011;37741;49.748;8.490;2023-11-19T06:11:39;1.95;;;0.90;;
51660;SDS011;37741;49.748;8.490;2023-11-19T06:14:05;1.83;;;0.90;;
51660;SDS011;37741;49.748;8.490;2023-11-19T06:16:32;2.15;;;0.80;;
51660;SDS011;37741;49.748;8.490;2023-11-19T06:18:58;1.75;;;1.00;;
51660;SDS011;37741;49.748;8.490;2023-11-19T06:21:23;2.13;;;0.88;;
51660;SDS011;37741;49.748;8.490;2023-11-19T06:23:50;1.65;;;0.75;;
51660;SDS011;37741;49.748;8.490;2023-11-19T06:26:19;4.72;;;1.13;;
51660;SDS011;37741;49.748;8.490;2023-11-19T06:28:47;3.92;;;1.23;;
51660;SDS011;37741;49.748;8.490;2023-11-19T06:31:12;2.95;;;1.40;;
51660;SDS011;37741;49.748;8.490;2023-11-19T06:33:41;2.70;;;1.20;;
51660;SDS011;37741;49.748;8.490;2023-11-19T06:36:07;2.78;;;1.27;;
51660;SDS011;37741;49.748;8.490;2023-11-19T06:38:34;2.63;;;1.50;;
51660;SDS011;37741;49.748;8.490;2023-11-19T06:41:07;2.92;;;1.30;;
51660;SDS011;37741;49.748;8.490;2023-11-19T06:43:34;2.10;;;1.20;;
51660;SDS011;37741;49.748;8.490;2023-11-19T06:46:00;2.90;;;1.02;;
51660;SDS011;37741;49.748;8.490;2023-11-19T06:48:26;2.47;;;1.20;;
51660;SDS011;37741;49.748;8.490;2023-11-19T06:50:52;2.10;;;1.15;;
51660;SDS011;37741;49.748;8.490;2023-11-19T06:53:18;3.00;;;1.63;;
51660;SDS011;37741;49.748;8.490;2023-11-19T06:55:44;3.67;;;1.38;;
51660;SDS011;37741;49.748;8.490;2023-11-19T06:58:10;3.08;;;1.77;;
51660;SDS011;37741;49.748;8.490;2023-11-19T07:00:37;3.03;;;1.70;;
51660;SDS011;37741;49.748;8.490;2023-11-19T07:03:03;2.38;;;1.23;;
51660;SDS011;37741;49.748;8.490;2023-11-19T07:05:30;2.88;;;2.00;;
51660;SDS011;37741;49.748;8.490;2023-11-19T07:07:56;4.03;;;1.85;;
51660;SDS011;37741;49.748;8.490;2023-11-19T07:10:22;4.75;;;1.65;;
51660;SDS011;37741;49.748;8.490;2023-11-19T07:12:48;2.85;;;1.50;;
51660;SDS011;37741;49.748;8.490;2023-11-19T07:15:15;2.55;;;1.58;;
51660;SDS011;37741;49.748;8.490;2023-11-19T07:17:42;3.20;;;1.67;;
51660;SDS011;37741;49.748;8.490;2023-11-19T07:20:11;1.80;;;1.05;;
51660;SDS011;37741;49.748;8.490;2023-11-19T07:22:38;4.05;;;1.80;;
51660;SDS011;37741;49.748;8.490;2023-11-19T07:25:05;2.70;;;1.60;;
51660;SDS011;37741;49.748;8.490;2023-11-19T07:27:32;3.42;;;1.40;;
51660;SDS011;37741;49.748;8.490;2023-11-19T07:29:57;5.97;;;1.70;;
51660;SDS011;37741;49.748;8.490;2023-11-19T07:32:23;2.92;;;1.52;;
51660;SDS011;37741;49.748;8.490;2023-11-19T07:34:49;3.72;;;1.35;;
51660;SDS011;37741;49.748;8.490;2023-11-19T07:37:15;2.50;;;1.20;;
51660;SDS011;37741;49.748;8.490;2023-11-19T07:39:42;3.17;;;1.10;;
51660;SDS011;37741;49.748;8.490;2023-11-19T07:42:07;2.67;;;1.02;;
51660;SDS011;37741;49.748;8.490;2023-11-19T07:44:34;2.63;;;1.52;;
51660;SDS011;37741;49.748;8.490;2023-11-19T07:46:59;3.00;;;1.30;;
51660;SDS011;37741;49.748;8.490;2023-11-19T07:49:25;2.30;;;1.30;;
51660;SDS011;37741;49.748;8.490;2023-11-19T07:51:51;1.95;;;1.20;;
51660;SDS011;37741;49.748;8.490;2023-11-19T07:54:17;2.65;;;1.23;;
51660;SDS011;37741;49.748;8.490;2023-11-19T07:56:43;2.10;;;1.02;;
51660;SDS011;37741;49.748;8.490;2023-11-19T07:59:09;3.10;;;1.08;;
51660;SDS011;37741;49.748;8.490;2023-11-19T08:01:35;3.97;;;1.10;;
51660;SDS011;37741;49.748;8.490;2023-11-19T08:04:02;4.18;;;1.30;;
51660;SDS011;37741;49.748;8.490;2023-11-19T08:06:27;3.10;;;1.27;;
51660;SDS011;37741;49.748;8.490;2023-11-19T08:08:53;2.40;;;1.00;;
51660;SDS011;37741;49.748;8.490;2023-11-19T08:11:19;2.38;;;1.10;;
51660;SDS011;37741;49.748;8.490;2023-11-19T08:13:47;2.75;;;1.05;;
51660;SDS011;37741;49.748;8.490;2023-11-19T08:16:13;2.47;;;1.20;;
51660;SDS011;37741;49.748;8.490;2023-11-19T08:18:41;3.00;;;1.10;;
51660;SDS011;37741;49.748;8.490;2023-11-19T08:21:09;2.65;;;1.27;;
51660;SDS011;37741;49.748;8.490;2023-11-19T08:23:35;1.95;;;0.93;;
51660;SDS011;37741;49.748;8.490;2023-11-19T08:26:01;2.60;;;1.35;;
51660;SDS011;37741;49.748;8.490;2023-11-19T08:28:27;2.67;;;1.17;;
51660;SDS011;37741;49.748;8.490;2023-11-19T08:30:53;4.38;;;1.08;;
51660;SDS011;37741;49.748;8.490;2023-11-19T08:33:19;3.38;;;1.00;;
51660;SDS011;37741;49.748;8.490;2023-11-19T08:35:47;4.68;;;1.35;;
51660;SDS011;37741;49.748;8.490;2023-11-19T08:38:13;2.53;;;1.25;;
51660;SDS011;37741;49.748;8.490;2023-11-19T08:40:39;2.13;;;1.00;;
51660;SDS011;37741;49.748;8.490;2023-11-19T08:43:04;4.65;;;1.45;;
51660;SDS011;37741;49.748;8.490;2023-11-19T08:45:31;3.63;;;1.20;;
51660;SDS011;37741;49.748;8.490;2023-11-19T08:47:57;1.80;;;1.10;;
51660;SDS011;37741;49.748;8.490;2023-11-19T08:50:22;2.85;;;1.50;;
51660;SDS011;37741;49.748;8.490;2023-11-19T08:52:48;2.75;;;1.35;;
51660;SDS011;37741;49.748;8.490;2023-11-19T08:55:14;3.83;;;1.30;;
51660;SDS011;37741;49.748;8.490;2023-11-19T08:57:40;2.95;;;1.05;;
51660;SDS011;37741;49.748;8.490;2023-11-19T09:00:06;1.77;;;0.98;;
51660;SDS011;37741;49.748;8.490;2023-11-19T09:02:35;2.72;;;1.10;;
51660;SDS011;37741;49.748;8.490;2023-11-19T09:05:02;1.85;;;0.90;;
51660;SDS011;37741;49.748;8.490;2023-11-19T09:07:28;3.40;;;1.00;;
51660;SDS011;37741;49.748;8.490;2023-11-19T09:09:53;3.33;;;1.30;;
51660;SDS011;37741;49.748;8.490;2023-11-19T09:12:19;3.75;;;0.93;;
51660;SDS011;37741;49.748;8.490;2023-11-19T09:14:44;4.85;;;1.30;;
51660;SDS011;37741;49.748;8.490;2023-11-19T09:17:11;2.38;;;1.10;;
51660;SDS011;37741;49.748;8.490;2023-11-19T09:19:37;2.45;;;1.10;;
51660;SDS011;37741;49.748;8.490;2023-11-19T09:22:03;3.22;;;1.10;;
51660;SDS011;37741;49.748;8.490;2023-11-19T09:24:29;1.92;;;1.00;;
51660;SDS011;37741;49.748;8.490;2023-11-19T09:26:54;2.92;;;1.23;;
51660;SDS011;37741;49.748;8.490;2023-11-19T09:29:21;3.15;;;1.33;;
51660;SDS011;37741;49.748;8.490;2023-11-19T09:31:46;2.50;;;1.00;;
51660;SDS011;37741;49.748;8.490;2023-11-19T09:34:12;3.78;;;1.20;;
51660;SDS011;37741;49.748;8.490;2023-11-19T09:36:38;4.40;;;1.38;;
51660;SDS011;37741;49.748;8.490;2023-11-19T09:39:08;2.90;;;1.40;;
51660;SDS011;37741;49.748;8.490;2023-11-19T09:41:34;4.60;;;1.65;;
51660;SDS011;37741;49.748;8.490;2023-11-19T09:44:00;3.63;;;1.40;;
51660;SDS011;37741;49.748;8.490;2023-11-19T09:46:25;2.72;;;1.00;;
51660;SDS011;37741;49.748;8.490;2023-11-19T09:48:52;3.10;;;1.42;;
51660;SDS011;37741;49.748;8.490;2023-11-19T09:51:22;2.60;;;1.30;;
51660;SDS011;37741;49.748;8.490;2023-11-19T09:53:47;3.42;;;1.50;;
51660;SDS011;37741;49.748;8.490;2023-11-19T09:56:17;4.65;;;1.20;;
51660;SDS011;37741;49.748;8.490;2023-11-19T09:58:44;2.88;;;1.30;;
51660;SDS011;37741;49.748;8.490;2023-11-19T10:01:10;4.53;;;1.42;;
51660;SDS011;37741;49.748;8.490;2023-11-19T10:03:37;3.80;;;1.60;;
51660;SDS011;37741;49.748;8.490;2023-11-19T10:06:07;3.05;;;1.15;;
51660;SDS011;37741;49.748;8.490;2023-11-19T10:08:34;2.72;;;1.48;;
51660;SDS011;37741;49.748;8.490;2023-11-19T10:11:04;3.72;;;1.38;;
51660;SDS011;37741;49.748;8.490;2023-11-19T10:13:35;2.83;;;1.00;;
51660;SDS011;37741;49.748;8.490;2023-11-19T10:16:08;5.25;;;1.25;;
51660;SDS011;37741;49.748;8.490;2023-11-19T10:18:36;2.78;;;1.63;;
51660;SDS011;37741;49.748;8.490;2023-11-19T10:21:03;2.83;;;1.20;;
51660;SDS011;37741;49.748;8.490;2023-11-19T10:23:31;6.32;;;1.92;;
51660;SDS011;37741;49.748;8.490;2023-11-19T10:26:18;1.50;;;0.82;;
51660;SDS011;37741;49.748;8.490;2023-11-19T10:28:48;7.95;;;1.45;;
51660;SDS011;37741;49.748;8.490;2023-11-19T10:31:14;4.75;;;1.30;;
51660;SDS011;37741;49.748;8.490;2023-11-19T10:33:43;3.03;;;1.05;;
51660;SDS011;37741;49.748;8.490;2023-11-19T10:36:10;2.83;;;1.40;;
51660;SDS011;37741;49.748;8.490;2023-11-19T10:38:39;3.67;;;1.20;;
51660;SDS011;37741;49.748;8.490;2023-11-19T10:41:06;2.90;;;1.20;;
51660;SDS011;37741;49.748;8.490;2023-11-19T10:43:32;5.90;;;1.58;;
51660;SDS011;37741;49.748;8.490;2023-11-19T10:46:11;2.83;;;1.30;;
51660;SDS011;37741;49.748;8.490;2023-11-19T10:48:38;5.30;;;1.80;;
51660;SDS011;37741;49.748;8.490;2023-11-19T10:51:05;5.95;;;1.58;;
51660;SDS011;37741;49.748;8.490;2023-11-19T10:53:36;2.72;;;1.17;;
51660;SDS011;37741;49.748;8.490;2023-11-19T10:56:04;5.18;;;1.50;;
51660;SDS011;37741;49.748;8.490;2023-11-19T10:58:34;7.57;;;1.45;;
51660;SDS011;37741;49.748;8.490;2023-11-19T11:01:03;2.92;;;1.30;;
51660;SDS011;37741;49.748;8.490;2023-11-19T11:03:39;2.65;;;1.15;;
51660;SDS011;37741;49.748;8.490;2023-11-19T11:06:05;3.67;;;1.20;;
51660;SDS011;37741;49.748;8.490;2023-11-19T11:08:31;3.53;;;1.30;;
51660;SDS011;37741;49.748;8.490;2023-11-19T11:10:58;3.70;;;2.25;;
51660;SDS011;37741;49.748;8.490;2023-11-19T11:13:26;6.25;;;1.60;;
51660;SDS011;37741;49.748;8.490;2023-11-19T11:15:56;4.40;;;1.50;;
51660;SDS011;37741;49.748;8.490;2023-11-19T11:18:23;3.78;;;1.55;;
51660;SDS011;37741;49.748;8.490;2023-11-19T11:20:59;4.30;;;1.45;;
51660;SDS011;37741;49.748;8.490;2023-11-19T11:39:39;4.40;;;1.17;;
51660;SDS011;37741;49.748;8.490;2023-11-19T11:50:13;5.22;;;1.20;;
51660;SDS011;37741;49.748;8.490;2023-11-19T11:55:26;5.28;;;1.42;;
51660;SDS011;37741;49.748;8.490;2023-11-19T11:57:55;4.47;;;1.60;;
51660;SDS011;37741;49.748;8.490;2023-11-19T12:00:29;5.93;;;1.30;;
51660;SDS011;37741;49.748;8.490;2023-11-19T12:02:57;6.25;;;2.05;;
51660;SDS011;37741;49.748;8.490;2023-11-19T12:05:26;7.53;;;1.58;;
51660;SDS011;37741;49.748;8.490;2023-11-19T12:08:02;5.38;;;1.17;;
51660;SDS011;37741;49.748;8.490;2023-11-19T12:10:30;6.57;;;1.30;;
51660;SDS011;37741;49.748;8.490;2023-11-19T12:13:00;8.07;;;1.60;;
51660;SDS011;37741;49.748;8.490;2023-11-19T12:15:26;4.45;;;1.15;;
51660;SDS011;37741;49.748;8.490;2023-11-19T12:17:53;5.55;;;1.27;;
51660;SDS011;37741;49.748;8.490;2023-11-19T12:20:21;5.35;;;1.60;;
51660;SDS011;37741;49.748;8.490;2023-11-19T12:22:48;6.35;;;1.55;;
51660;SDS011;37741;49.748;8.490;2023-11-19T12:25:14;5.57;;;1.45;;
51660;SDS011;37741;49.748;8.490;2023-11-19T12:27:41;4.10;;;1.35;;
51660;SDS011;37741;49.748;8.490;2023-11-19T12:30:09;7.28;;;1.60;;
51660;SDS011;37741;49.748;8.490;2023-11-19T12:32:38;6.72;;;1.70;;
51660;SDS011;37741;49.748;8.490;2023-11-19T12:35:05;11.90;;;1.67;;
51660;SDS011;37741;49.748;8.490;2023-11-19T12:37:38;6.38;;;1.27;;
51660;SDS011;37741;49.748;8.490;2023-11-19T12:40:22;7.60;;;1.30;;
51660;SDS011;37741;49.748;8.490;2023-11-19T12:42:50;5.93;;;1.40;;
51660;SDS011;37741;49.748;8.490;2023-11-19T12:45:20;5.63;;;1.35;;
51660;SDS011;37741;49.748;8.490;2023-11-19T12:47:48;4.57;;;1.50;;
51660;SDS011;37741;49.748;8.490;2023-11-19T12:50:17;5.10;;;1.30;;
51660;SDS011;37741;49.748;8.490;2023-11-19T12:52:54;3.55;;;1.30;;
51660;SDS011;37741;49.748;8.490;2023-11-19T12:55:26;9.60;;;2.08;;
51660;SDS011;37741;49.748;8.490;2023-11-19T12:57:53;5.47;;;1.45;;
51660;SDS011;37741;49.748;8.490;2023-11-19T13:00:23;6.35;;;2.92;;
51660;SDS011;37741;49.748;8.490;2023-11-19T13:02:50;6.28;;;1.35;;
51660;SDS011;37741;49.748;8.490;2023-11-19T13:10:32;6.72;;;1.92;;
51660;SDS011;37741;49.748;8.490;2023-11-19T13:13:00;6.90;;;2.47;;
51660;SDS011;37741;49.748;8.490;2023-11-19T13:15:35;6.70;;;1.20;;
51660;SDS011;37741;49.748;8.490;2023-11-19T13:18:01;4.80;;;1.30;;
51660;SDS011;37741;49.748;8.490;2023-11-19T13:20:27;4.10;;;0.90;;
51660;SDS011;37741;49.748;8.490;2023-11-19T13:22:54;4.50;;;1.50;;
51660;SDS011;37741;49.748;8.490;2023-11-19T13:25:24;4.65;;;1.17;;
51660;SDS011;37741;49.748;8.490;2023-11-19T13:27:50;7.22;;;2.35;;
51660;SDS011;37741;49.748;8.490;2023-11-19T13:30:16;3.13;;;1.30;;
51660;SDS011;37741;49.748;8.490;2023-11-19T13:32:42;3.13;;;1.20;;
51660;SDS011;37741;49.748;8.490;2023-11-19T13:35:09;5.85;;;1.25;;
51660;SDS011;37741;49.748;8.490;2023-11-19T13:37:35;4.03;;;0.90;;
51660;SDS011;37741;49.748;8.490;2023-11-19T13:40:00;4.57;;;1.25;;
51660;SDS011;37741;49.748;8.490;2023-11-19T13:42:28;4.28;;;1.13;;
51660;SDS011;37741;49.748;8.490;2023-11-19T13:44:53;3.55;;;1.13;;
51660;SDS011;37741;49.748;8.490;2023-11-19T13:47:20;4.25;;;1.10;;
51660;SDS011;37741;49.748;8.490;2023-11-19T13:49:45;7.70;;;1.83;;
51660;SDS011;37741;49.748;8.490;2023-11-19T13:52:11;6.85;;;1.50;;
51660;SDS011;37741;49.748;8.490;2023-11-19T13:54:36;4.15;;;1.42;;
51660;SDS011;37741;49.748;8.490;2023-11-19T13:57:02;3.13;;;1.25;;
51660;SDS011;37741;49.748;8.490;2023-11-19T13:59:29;9.82;;;1.73;;
51660;SDS011;37741;49.748;8.490;2023-11-19T14:01:58;7.05;;;1.23;;
51660;SDS011;37741;49.748;8.490;2023-11-19T14:04:24;7.53;;;1.48;;
51660;SDS011;37741;49.748;8.490;2023-11-19T14:06:50;6.32;;;1.65;;
51660;SDS011;37741;49.748;8.490;2023-11-19T14:09:16;6.57;;;2.08;;
51660;SDS011;37741;49.748;8.490;2023-11-19T14:11:42;4.85;;;1.40;;
51660;SDS011;37741;49.748;8.490;2023-11-19T14:14:08;4.78;;;1.23;;
51660;SDS011;37741;49.748;8.490;2023-11-19T14:16:34;7.57;;;2.28;;
51660;SDS011;37741;49.748;8.490;2023-11-19T14:18:59;7.45;;;1.40;;
51660;SDS011;37741;49.748;8.490;2023-11-19T14:21:25;5.55;;;1.58;;
51660;SDS011;37741;49.748;8.490;2023-11-19T14:23:51;10.30;;;1.77;;
51660;SDS011;37741;49.748;8.490;2023-11-19T14:26:17;7.30;;;1.73;;
51660;SDS011;37741;49.748;8.490;2023-11-19T14:28:43;5.30;;;1.38;;
51660;SDS011;37741;49.748;8.490;2023-11-19T14:31:09;5.85;;;1.50;;
51660;SDS011;37741;49.748;8.490;2023-11-19T14:33:34;4.25;;;1.08;;
51660;SDS011;37741;49.748;8.490;2023-11-19T14:36:01;5.43;;;1.20;;
51660;SDS011;37741;49.748;8.490;2023-11-19T14:38:27;4.07;;;1.02;;
51660;SDS011;37741;49.748;8.490;2023-11-19T14:40:52;5.80;;;1.27;;
51660;SDS011;37741;49.748;8.490;2023-11-19T14:43:19;8.73;;;1.67;;
51660;SDS011;37741;49.748;8.490;2023-11-19T14:45:45;4.60;;;1.40;;
51660;SDS011;37741;49.748;8.490;2023-11-19T14:48:11;6.72;;;1.38;;
51660;SDS011;37741;49.748;8.490;2023-11-19T14:50:36;6.85;;;2.42;;
51660;SDS011;37741;49.748;8.490;2023-11-19T14:53:02;9.55;;;1.67;;
51660;SDS011;37741;49.748;8.490;2023-11-19T14:55:28;4.53;;;1.40;;
51660;SDS011;37741;49.748;8.490;2023-11-19T14:57:54;4.20;;;1.33;;
51660;SDS011;37741;49.748;8.490;2023-11-19T15:00:19;3.75;;;1.00;;
51660;SDS011;37741;49.748;8.490;2023-11-19T15:02:46;6.03;;;1.40;;
51660;SDS011;37741;49.748;8.490;2023-11-19T15:05:11;6.45;;;1.50;;
51660;SDS011;37741;49.748;8.490;2023-11-19T15:07:38;5.97;;;1.70;;
51660;SDS011;37741;49.748;8.490;2023-11-19T15:10:05;4.93;;;1.08;;
51660;SDS011;37741;49.748;8.490;2023-11-19T15:12:37;4.85;;;1.52;;
51660;SDS011;37741;49.748;8.490;2023-11-19T15:15:07;9.23;;;1.60;;
51660;SDS011;37741;49.748;8.490;2023-11-19T15:17:34;6.15;;;1.77;;
51660;SDS011;37741;49.748;8.490;2023-11-19T15:20:01;4.70;;;1.17;;